createdAt,value
2022-08-26T00:00:11.589Z,1006.70
2022-08-26T00:01:11.580Z,1006.71
2022-08-26T00:02:11.658Z,1006.74
2022-08-26T00:03:11.551Z,1006.73
2022-08-26T00:04:11.629Z,1006.79
2022-08-26T00:05:11.531Z,1006.76
2022-08-26T00:06:11.531Z,1006.76
2022-08-26T00:07:11.515Z,1006.76
2022-08-26T00:08:13.051Z,1006.75
2022-08-26T00:09:11.481Z,1006.76
2022-08-26T00:10:11.471Z,1006.78
2022-08-26T00:11:11.453Z,1006.75
2022-08-26T00:12:12.420Z,1006.78
2022-08-26T00:13:11.431Z,1006.75
2022-08-26T00:14:11.422Z,1006.76
2022-08-26T00:15:11.401Z,1006.77
2022-08-26T00:16:11.629Z,1006.76
2022-08-26T00:17:11.381Z,1006.77
2022-08-26T00:18:21.994Z,1006.75
2022-08-26T00:19:12.352Z,1006.75
2022-08-26T00:20:11.343Z,1006.77
2022-08-26T00:21:11.331Z,1006.82
2022-08-26T00:22:11.322Z,1006.78
2022-08-26T00:23:11.301Z,1006.81
2022-08-26T00:24:11.299Z,1006.81
2022-08-26T00:25:11.282Z,1006.78
2022-08-26T00:26:11.282Z,1006.80
2022-08-26T00:27:11.266Z,1006.79
2022-08-26T00:28:11.242Z,1006.77
2022-08-26T00:29:11.471Z,1006.77
2022-08-26T00:30:11.220Z,1006.76
2022-08-26T00:31:11.309Z,1006.78
2022-08-26T00:32:11.511Z,1006.79
2022-08-26T00:33:11.173Z,1006.74
2022-08-26T00:34:12.052Z,1006.76
2022-08-26T00:35:11.152Z,1006.76
2022-08-26T00:36:16.113Z,1006.78
2022-08-26T00:37:15.649Z,1006.77
2022-08-26T00:38:11.115Z,1006.74
2022-08-26T00:39:11.103Z,1006.74
2022-08-26T00:40:11.155Z,1006.69
2022-08-26T00:41:11.073Z,1006.71
2022-08-26T00:42:11.075Z,1006.71
2022-08-26T00:43:11.099Z,1006.71
2022-08-26T00:44:11.146Z,1006.71
2022-08-26T00:45:11.820Z,1006.64
2022-08-26T00:46:11.087Z,1006.65
2022-08-26T00:47:11.003Z,1006.65
2022-08-26T00:48:10.992Z,1006.66
2022-08-26T00:49:12.008Z,1006.69
2022-08-26T00:50:10.964Z,1006.71
2022-08-26T00:51:10.944Z,1006.69
2022-08-26T00:52:11.922Z,1006.67
2022-08-26T00:53:10.926Z,1006.72
2022-08-26T00:54:10.933Z,1006.67
2022-08-26T00:55:10.897Z,1006.69
2022-08-26T00:56:10.896Z,1006.69
2022-08-26T00:57:16.359Z,1006.68
2022-08-26T00:58:11.863Z,1006.68
2022-08-26T00:59:10.849Z,1006.69
2022-08-26T01:00:10.847Z,1006.66
2022-08-26T01:01:10.894Z,1006.65
2022-08-26T01:02:20.868Z,1006.66
2022-08-26T01:03:12.666Z,1006.72
2022-08-26T01:04:10.785Z,1006.69
2022-08-26T01:05:10.773Z,1006.70
2022-08-26T01:06:13.049Z,1006.69
2022-08-26T01:07:10.754Z,1006.71
2022-08-26T01:08:10.736Z,1006.70
2022-08-26T01:09:10.723Z,1006.71
2022-08-26T01:10:10.718Z,1006.68
2022-08-26T01:11:10.695Z,1006.65
2022-08-26T01:12:10.696Z,1006.64
2022-08-26T01:13:10.668Z,1006.67
2022-08-26T01:14:10.664Z,1006.67
2022-08-26T01:15:10.645Z,1006.65
2022-08-26T01:16:10.692Z,1006.64
2022-08-26T01:17:10.625Z,1006.69
2022-08-26T01:18:10.616Z,1006.64
2022-08-26T01:19:10.599Z,1006.64
2022-08-26T01:20:10.586Z,1006.66
2022-08-26T01:21:10.567Z,1006.67
2022-08-26T01:22:10.569Z,1006.68
2022-08-26T01:23:10.546Z,1006.67
2022-08-26T01:24:10.536Z,1006.69
2022-08-26T01:25:10.537Z,1006.71
2022-08-26T01:26:18.268Z,1006.71
2022-08-26T01:27:11.505Z,1006.73
2022-08-26T01:28:10.497Z,1006.75
2022-08-26T01:29:10.466Z,1006.73
2022-08-26T01:30:10.456Z,1006.76
2022-08-26T01:31:10.503Z,1006.77
2022-08-26T01:32:10.447Z,1006.80
2022-08-26T01:33:10.417Z,1006.90
2022-08-26T01:34:10.407Z,1006.93
2022-08-26T01:35:10.397Z,1006.92
2022-08-26T01:36:10.401Z,1006.83
2022-08-26T01:37:13.644Z,1006.84
2022-08-26T01:38:11.357Z,1006.91
2022-08-26T01:39:10.347Z,1006.90
2022-08-26T01:40:10.392Z,1006.87
2022-08-26T01:41:14.164Z,1006.87
2022-08-26T01:42:11.318Z,1006.84
2022-08-26T01:43:10.287Z,1006.88
2022-08-26T01:44:10.286Z,1006.96
2022-08-26T01:45:10.266Z,1006.99
2022-08-26T01:46:10.330Z,1007.01
2022-08-26T01:47:10.283Z,1007.03
2022-08-26T01:48:10.237Z,1006.97
2022-08-26T01:49:10.218Z,1006.96
2022-08-26T01:50:10.208Z,1006.99
2022-08-26T01:51:10.187Z,1006.95
2022-08-26T01:52:10.775Z,1006.90
2022-08-26T01:53:10.299Z,1006.88
2022-08-26T01:54:12.101Z,1006.94
2022-08-26T01:55:10.139Z,1007.00
2022-08-26T01:56:10.128Z,1007.01
2022-08-26T01:57:10.118Z,1006.93
2022-08-26T01:58:10.107Z,1006.88
2022-08-26T01:59:10.088Z,1006.91
2022-08-26T02:00:10.078Z,1006.93
2022-08-26T02:01:10.168Z,1006.94
2022-08-26T02:02:10.059Z,1006.93
2022-08-26T02:03:10.038Z,1006.92
2022-08-26T02:04:10.059Z,1006.95
2022-08-26T02:05:10.018Z,1006.93
2022-08-26T02:06:10.339Z,1006.93
2022-08-26T02:07:09.999Z,1006.97
2022-08-26T02:08:09.976Z,1007.01
2022-08-26T02:09:09.969Z,1007.03
2022-08-26T02:10:09.949Z,1007.01
2022-08-26T02:11:09.939Z,1007.02
2022-08-26T02:12:09.930Z,1007.01
2022-08-26T02:13:09.919Z,1007.01
2022-08-26T02:14:09.898Z,1006.99
2022-08-26T02:15:09.889Z,1007.02
2022-08-26T02:16:09.909Z,1006.97
2022-08-26T02:17:09.870Z,1006.98
2022-08-26T02:18:09.849Z,1006.99
2022-08-26T02:19:09.840Z,1006.94
2022-08-26T02:20:13.081Z,1006.95
2022-08-26T02:21:09.841Z,1006.95
2022-08-26T02:22:09.810Z,1006.95
2022-08-26T02:23:09.790Z,1006.91
2022-08-26T02:24:09.770Z,1006.94
2022-08-26T02:25:09.770Z,1006.93
2022-08-26T02:26:09.749Z,1006.91
2022-08-26T02:27:09.750Z,1006.93
2022-08-26T02:28:09.720Z,1006.95
2022-08-26T02:29:09.718Z,1006.95
2022-08-26T02:30:09.691Z,1006.92
2022-08-26T02:31:09.990Z,1006.91
2022-08-26T02:32:09.680Z,1006.91
2022-08-26T02:33:09.694Z,1006.92
2022-08-26T02:34:10.664Z,1006.95
2022-08-26T02:35:09.639Z,1006.92
2022-08-26T02:36:09.620Z,1006.94
2022-08-26T02:37:09.621Z,1006.92
2022-08-26T02:38:09.947Z,1006.95
2022-08-26T02:39:09.589Z,1006.96
2022-08-26T02:40:09.630Z,1006.91
2022-08-26T02:41:09.561Z,1006.91
2022-08-26T02:42:09.551Z,1006.93
2022-08-26T02:43:09.544Z,1006.94
2022-08-26T02:44:09.522Z,1006.92
2022-08-26T02:45:09.511Z,1006.93
2022-08-26T02:46:09.501Z,1006.97
2022-08-26T02:47:09.555Z,1006.96
2022-08-26T02:48:09.469Z,1006.93
2022-08-26T02:49:09.461Z,1006.97
2022-08-26T02:50:09.682Z,1006.96
2022-08-26T02:51:09.441Z,1006.92
2022-08-26T02:52:09.430Z,1006.94
2022-08-26T02:53:09.614Z,1006.90
2022-08-26T02:54:09.477Z,1006.89
2022-08-26T02:55:09.382Z,1006.88
2022-08-26T02:56:09.363Z,1006.84
2022-08-26T02:57:09.369Z,1006.87
2022-08-26T02:58:09.343Z,1006.87
2022-08-26T02:59:09.332Z,1006.91
2022-08-26T03:00:09.323Z,1006.92
2022-08-26T03:01:09.369Z,1006.93
2022-08-26T03:02:09.377Z,1006.89
2022-08-26T03:03:09.483Z,1006.91
2022-08-26T03:04:09.265Z,1006.92
2022-08-26T03:05:09.254Z,1006.95
2022-08-26T03:06:09.243Z,1006.93
2022-08-26T03:07:09.242Z,1006.90
2022-08-26T03:08:09.213Z,1006.87
2022-08-26T03:09:09.203Z,1006.84
2022-08-26T03:10:09.195Z,1006.84
2022-08-26T03:11:09.183Z,1006.84
2022-08-26T03:12:09.172Z,1006.85
2022-08-26T03:13:09.311Z,1006.84
2022-08-26T03:14:09.142Z,1006.85
2022-08-26T03:15:16.393Z,1006.87
2022-08-26T03:16:10.170Z,1006.91
2022-08-26T03:17:09.113Z,1006.92
2022-08-26T03:18:09.094Z,1006.94
2022-08-26T03:19:09.082Z,1006.88
2022-08-26T03:20:09.062Z,1006.85
2022-08-26T03:21:09.054Z,1006.85
2022-08-26T03:22:09.052Z,1006.87
2022-08-26T03:23:09.280Z,1006.87
2022-08-26T03:24:09.014Z,1006.94
2022-08-26T03:25:09.017Z,1006.91
2022-08-26T03:26:08.984Z,1006.93
2022-08-26T03:27:08.986Z,1006.94
2022-08-26T03:28:09.546Z,1006.90
2022-08-26T03:29:08.954Z,1006.87
2022-08-26T03:30:08.942Z,1006.90
2022-08-26T03:31:08.976Z,1006.88
2022-08-26T03:32:08.929Z,1006.88
2022-08-26T03:33:09.047Z,1006.87
2022-08-26T03:34:08.884Z,1006.85
2022-08-26T03:35:08.875Z,1006.88
2022-08-26T03:36:08.854Z,1006.87
2022-08-26T03:37:08.863Z,1006.87
2022-08-26T03:38:08.837Z,1006.88
2022-08-26T03:39:08.825Z,1006.87
2022-08-26T03:40:08.912Z,1006.89
2022-08-26T03:41:08.808Z,1006.88
2022-08-26T03:42:08.795Z,1006.92
2022-08-26T03:43:09.863Z,1006.89
2022-08-26T03:44:08.756Z,1006.90
2022-08-26T03:45:08.755Z,1006.91
2022-08-26T03:46:08.759Z,1006.92
2022-08-26T03:47:08.735Z,1006.90
2022-08-26T03:48:08.707Z,1006.90
2022-08-26T03:49:08.696Z,1006.90
2022-08-26T03:50:08.685Z,1006.93
2022-08-26T03:51:08.676Z,1006.92
2022-08-26T03:52:08.666Z,1006.93
2022-08-26T03:53:13.260Z,1006.94
2022-08-26T03:54:08.637Z,1006.93
2022-08-26T03:55:08.629Z,1006.94
2022-08-26T03:56:08.606Z,1006.91
2022-08-26T03:57:08.610Z,1006.94
2022-08-26T03:58:08.579Z,1006.97
2022-08-26T03:59:08.579Z,1006.94
2022-08-26T04:00:08.557Z,1007.00
2022-08-26T04:01:08.547Z,1006.98
2022-08-26T04:02:11.683Z,1007.01
2022-08-26T04:03:09.966Z,1006.97
2022-08-26T04:04:08.506Z,1007.04
2022-08-26T04:05:08.496Z,1006.99
2022-08-26T04:06:08.477Z,1007.04
2022-08-26T04:07:08.491Z,1007.07
2022-08-26T04:08:08.459Z,1007.08
2022-08-26T04:09:08.448Z,1007.07
2022-08-26T04:10:08.535Z,1007.11
2022-08-26T04:11:08.426Z,1007.09
2022-08-26T04:12:08.418Z,1007.09
2022-08-26T04:13:08.510Z,1007.02
2022-08-26T04:14:08.377Z,1007.03
2022-08-26T04:15:08.370Z,1007.07
2022-08-26T04:16:08.414Z,1007.09
2022-08-26T04:17:08.357Z,1007.09
2022-08-26T04:18:08.328Z,1007.11
2022-08-26T04:19:08.318Z,1007.09
2022-08-26T04:20:08.308Z,1007.08
2022-08-26T04:21:08.297Z,1007.09
2022-08-26T04:22:08.288Z,1007.04
2022-08-26T04:23:08.439Z,1007.02
2022-08-26T04:24:11.414Z,1007.02
2022-08-26T04:25:08.248Z,1007.03
2022-08-26T04:26:08.228Z,1007.04
2022-08-26T04:27:08.234Z,1007.00
2022-08-26T04:28:08.199Z,1006.98
2022-08-26T04:29:08.199Z,1007.00
2022-08-26T04:30:08.178Z,1006.97
2022-08-26T04:31:08.235Z,1007.01
2022-08-26T04:32:08.169Z,1006.98
2022-08-26T04:33:12.815Z,1006.96
2022-08-26T04:34:09.129Z,1007.01
2022-08-26T04:35:08.122Z,1007.01
2022-08-26T04:36:08.100Z,1007.03
2022-08-26T04:37:08.100Z,1007.03
2022-08-26T04:38:08.079Z,1007.06
2022-08-26T04:39:08.069Z,1007.04
2022-08-26T04:40:08.081Z,1007.05
2022-08-26T04:41:14.883Z,1007.07
2022-08-26T04:42:09.029Z,1007.04
2022-08-26T04:43:08.186Z,1007.05
2022-08-26T04:44:08.249Z,1007.07
2022-08-26T04:45:10.267Z,1007.07
2022-08-26T04:46:08.024Z,1007.07
2022-08-26T04:47:07.993Z,1007.10
2022-08-26T04:48:07.949Z,1007.09
2022-08-26T04:49:07.940Z,1007.13
2022-08-26T04:50:07.933Z,1007.10
2022-08-26T04:51:07.930Z,1007.14
2022-08-26T04:52:07.910Z,1007.14
2022-08-26T04:53:08.057Z,1007.13
2022-08-26T04:54:07.870Z,1007.17
2022-08-26T04:55:08.396Z,1007.16
2022-08-26T04:56:07.850Z,1007.17
2022-08-26T04:57:07.863Z,1007.20
2022-08-26T04:58:07.824Z,1007.21
2022-08-26T04:59:07.820Z,1007.21
2022-08-26T05:00:08.799Z,1007.19
2022-08-26T05:01:07.790Z,1007.21
2022-08-26T05:02:07.868Z,1007.24
2022-08-26T05:03:10.378Z,1007.24
2022-08-26T05:04:07.933Z,1007.22
2022-08-26T05:05:07.741Z,1007.24
2022-08-26T05:06:07.731Z,1007.24
2022-08-26T05:07:07.729Z,1007.26
2022-08-26T05:08:07.702Z,1007.26
2022-08-26T05:09:07.931Z,1007.30
2022-08-26T05:10:08.712Z,1007.33
2022-08-26T05:11:07.661Z,1007.33
2022-08-26T05:12:07.658Z,1007.33
2022-08-26T05:13:11.080Z,1007.33
2022-08-26T05:14:07.622Z,1007.33
2022-08-26T05:15:07.627Z,1007.39
2022-08-26T05:16:07.698Z,1007.37
2022-08-26T05:17:07.601Z,1007.38
2022-08-26T05:18:07.572Z,1007.38
2022-08-26T05:19:07.562Z,1007.37
2022-08-26T05:20:07.542Z,1007.36
2022-08-26T05:21:07.547Z,1007.35
2022-08-26T05:22:07.532Z,1007.34
2022-08-26T05:23:07.695Z,1007.37
2022-08-26T05:24:07.494Z,1007.33
2022-08-26T05:25:07.490Z,1007.34
2022-08-26T05:26:07.473Z,1007.33
2022-08-26T05:27:11.526Z,1007.33
2022-08-26T05:28:07.442Z,1007.36
2022-08-26T05:29:07.433Z,1007.33
2022-08-26T05:30:07.422Z,1007.36
2022-08-26T05:31:07.458Z,1007.35
2022-08-26T05:32:07.402Z,1007.40
2022-08-26T05:33:07.456Z,1007.40
2022-08-26T05:34:07.363Z,1007.40
2022-08-26T05:35:08.767Z,1007.43
2022-08-26T05:36:07.369Z,1007.40
2022-08-26T05:37:07.343Z,1007.38
2022-08-26T05:38:11.801Z,1007.43
2022-08-26T05:39:10.520Z,1007.41
2022-08-26T05:40:07.379Z,1007.42
2022-08-26T05:41:07.284Z,1007.44
2022-08-26T05:42:07.281Z,1007.38
2022-08-26T05:43:07.402Z,1007.38
2022-08-26T05:44:07.243Z,1007.40
2022-08-26T05:45:07.481Z,1007.43
2022-08-26T05:46:07.270Z,1007.48
2022-08-26T05:47:07.222Z,1007.50
2022-08-26T05:48:07.192Z,1007.51
2022-08-26T05:49:12.410Z,1007.56
2022-08-26T05:50:08.163Z,1007.62
2022-08-26T05:51:07.153Z,1007.58
2022-08-26T05:52:07.146Z,1007.65
2022-08-26T05:53:07.315Z,1007.66
2022-08-26T05:54:07.202Z,1007.66
2022-08-26T05:55:07.104Z,1007.64
2022-08-26T05:56:07.093Z,1007.68
2022-08-26T05:57:07.332Z,1007.69
2022-08-26T05:58:07.300Z,1007.73
2022-08-26T05:59:14.081Z,1007.72
2022-08-26T06:00:08.392Z,1007.67
2022-08-26T06:01:07.098Z,1007.76
2022-08-26T06:02:07.208Z,1007.77
2022-08-26T06:03:07.260Z,1007.79
2022-08-26T06:04:07.313Z,1007.85
2022-08-26T06:05:07.616Z,1007.81
2022-08-26T06:06:06.956Z,1007.87
2022-08-26T06:07:07.390Z,1007.88
2022-08-26T06:08:06.933Z,1007.85
2022-08-26T06:09:06.924Z,1007.86
2022-08-26T06:10:30.978Z,1007.84
2022-08-26T06:11:07.906Z,1007.86
2022-08-26T06:12:07.895Z,1007.84
2022-08-26T06:13:07.030Z,1007.85
2022-08-26T06:14:07.877Z,1007.85
2022-08-26T06:15:06.845Z,1007.82
2022-08-26T06:16:06.870Z,1007.81
2022-08-26T06:17:06.833Z,1007.81
2022-08-26T06:18:06.805Z,1007.79
2022-08-26T06:19:11.006Z,1007.80
2022-08-26T06:20:06.775Z,1007.84
2022-08-26T06:21:06.764Z,1007.81
2022-08-26T06:22:06.765Z,1007.82
2022-08-26T06:23:06.739Z,1007.81
2022-08-26T06:24:06.732Z,1007.85
2022-08-26T06:25:06.719Z,1007.85
2022-08-26T06:26:06.705Z,1007.82
2022-08-26T06:27:06.696Z,1007.84
2022-08-26T06:28:06.676Z,1007.89
2022-08-26T06:29:06.655Z,1007.89
2022-08-26T06:30:06.645Z,1007.89
2022-08-26T06:31:06.690Z,1007.93
2022-08-26T06:32:06.635Z,1007.89
2022-08-26T06:33:06.678Z,1007.94
2022-08-26T06:34:10.494Z,1007.95
2022-08-26T06:35:06.595Z,1007.93
2022-08-26T06:36:07.574Z,1007.96
2022-08-26T06:37:06.718Z,1007.96
2022-08-26T06:38:06.545Z,1007.97
2022-08-26T06:39:06.539Z,1008.04
2022-08-26T06:40:06.562Z,1008.09
2022-08-26T06:41:06.514Z,1008.04
2022-08-26T06:42:06.515Z,1008.06
2022-08-26T06:43:06.649Z,1008.08
2022-08-26T06:44:06.468Z,1008.05
2022-08-26T06:45:06.455Z,1008.11
2022-08-26T06:46:06.467Z,1008.06
2022-08-26T06:47:06.433Z,1008.05
2022-08-26T06:48:06.415Z,1008.10
2022-08-26T06:49:06.398Z,1008.06
2022-08-26T06:50:06.386Z,1008.05
2022-08-26T06:51:06.375Z,1008.01
2022-08-26T06:52:06.376Z,1008.04
2022-08-26T06:53:06.381Z,1008.05
2022-08-26T06:54:06.336Z,1008.06
2022-08-26T06:55:06.316Z,1008.07
2022-08-26T06:56:06.313Z,1008.06
2022-08-26T06:57:06.305Z,1008.10
2022-08-26T06:58:06.286Z,1008.07
2022-08-26T06:59:07.192Z,1008.08
2022-08-26T07:00:06.507Z,1008.06
2022-08-26T07:01:11.415Z,1008.10
2022-08-26T07:02:07.305Z,1008.10
2022-08-26T07:03:06.447Z,1008.12
2022-08-26T07:04:10.383Z,1008.14
2022-08-26T07:05:06.186Z,1008.17
2022-08-26T07:06:06.187Z,1008.17
2022-08-26T07:07:06.175Z,1008.20
2022-08-26T07:08:06.155Z,1008.17
2022-08-26T07:09:06.141Z,1008.20
2022-08-26T07:10:06.126Z,1008.15
2022-08-26T07:11:06.116Z,1008.13
2022-08-26T07:12:06.107Z,1008.12
2022-08-26T07:13:06.144Z,1008.15
2022-08-26T07:14:06.086Z,1008.15
2022-08-26T07:15:06.057Z,1008.18
2022-08-26T07:16:06.113Z,1008.17
2022-08-26T07:17:06.037Z,1008.20
2022-08-26T07:18:06.026Z,1008.16
2022-08-26T07:19:10.971Z,1008.16
2022-08-26T07:20:06.996Z,1008.16
2022-08-26T07:21:05.986Z,1008.19
2022-08-26T07:22:05.983Z,1008.19
2022-08-26T07:23:05.957Z,1008.17
2022-08-26T07:24:05.947Z,1008.14
2022-08-26T07:25:05.926Z,1008.19
2022-08-26T07:26:05.927Z,1008.19
2022-08-26T07:27:06.017Z,1008.16
2022-08-26T07:28:05.924Z,1008.20
2022-08-26T07:29:05.884Z,1008.23
2022-08-26T07:30:05.868Z,1008.22
2022-08-26T07:31:05.886Z,1008.25
2022-08-26T07:32:05.857Z,1008.30
2022-08-26T07:33:05.826Z,1008.29
2022-08-26T07:34:05.818Z,1008.28
2022-08-26T07:35:05.800Z,1008.33
2022-08-26T07:36:05.788Z,1008.31
2022-08-26T07:37:05.787Z,1008.29
2022-08-26T07:38:05.767Z,1008.34
2022-08-26T07:39:05.761Z,1008.35
2022-08-26T07:40:05.777Z,1008.37
2022-08-26T07:41:05.725Z,1008.36
2022-08-26T07:42:07.892Z,1008.36
2022-08-26T07:43:05.716Z,1008.34
2022-08-26T07:44:05.690Z,1008.40
2022-08-26T07:45:05.667Z,1008.41
2022-08-26T07:46:05.667Z,1008.45
2022-08-26T07:47:10.489Z,1008.49
2022-08-26T07:48:06.638Z,1008.49
2022-08-26T07:49:05.650Z,1008.49
2022-08-26T07:50:05.608Z,1008.48
2022-08-26T07:51:05.597Z,1008.54
2022-08-26T07:52:05.588Z,1008.52
2022-08-26T07:53:05.646Z,1008.52
2022-08-26T07:54:05.557Z,1008.51
2022-08-26T07:55:05.538Z,1008.55
2022-08-26T07:56:05.528Z,1008.53
2022-08-26T07:57:09.275Z,1008.54
2022-08-26T07:58:05.514Z,1008.54
2022-08-26T07:59:13.968Z,1008.56
2022-08-26T08:00:06.478Z,1008.56
2022-08-26T08:01:05.502Z,1008.61
2022-08-26T08:02:05.468Z,1008.59
2022-08-26T08:03:05.469Z,1008.60
2022-08-26T08:04:05.431Z,1008.61
2022-08-26T08:05:05.476Z,1008.60
2022-08-26T08:06:05.410Z,1008.63
2022-08-26T08:07:05.398Z,1008.62
2022-08-26T08:08:26.737Z,1008.65
2022-08-26T08:09:06.359Z,1008.69
2022-08-26T08:10:09.634Z,1008.64
2022-08-26T08:11:06.338Z,1008.63
2022-08-26T08:12:05.339Z,1008.67
2022-08-26T08:13:05.340Z,1008.68
2022-08-26T08:14:08.557Z,1008.68
2022-08-26T08:15:05.289Z,1008.68
2022-08-26T08:16:05.279Z,1008.71
2022-08-26T08:17:05.404Z,1008.67
2022-08-26T08:18:05.386Z,1008.70
2022-08-26T08:19:05.238Z,1008.71
2022-08-26T08:20:05.228Z,1008.73
2022-08-26T08:21:20.976Z,1008.72
2022-08-26T08:22:17.317Z,1008.74
2022-08-26T08:23:06.178Z,1008.73
2022-08-26T08:24:05.177Z,1008.76
2022-08-26T08:25:06.289Z,1008.73
2022-08-26T08:26:05.151Z,1008.71
2022-08-26T08:27:05.139Z,1008.74
2022-08-26T08:28:05.193Z,1008.70
2022-08-26T08:29:05.108Z,1008.73
2022-08-26T08:30:05.099Z,1008.73
2022-08-26T08:31:05.163Z,1008.73
2022-08-26T08:32:05.144Z,1008.76
2022-08-26T08:33:05.057Z,1008.74
2022-08-26T08:34:05.049Z,1008.76
2022-08-26T08:35:10.883Z,1008.77
2022-08-26T08:36:06.269Z,1008.76
2022-08-26T08:37:08.710Z,1008.78
2022-08-26T08:38:06.094Z,1008.72
2022-08-26T08:39:04.979Z,1008.77
2022-08-26T08:40:05.035Z,1008.72
2022-08-26T08:41:04.950Z,1008.69
2022-08-26T08:42:04.949Z,1008.72
2022-08-26T08:43:05.184Z,1008.68
2022-08-26T08:44:04.918Z,1008.66
2022-08-26T08:45:04.900Z,1008.64
2022-08-26T08:46:04.909Z,1008.66
2022-08-26T08:47:04.881Z,1008.68
2022-08-26T08:48:04.870Z,1008.67
2022-08-26T08:49:04.849Z,1008.65
2022-08-26T08:50:04.844Z,1008.66
2022-08-26T08:51:04.819Z,1008.69
2022-08-26T08:52:04.822Z,1008.72
2022-08-26T08:53:08.946Z,1008.71
2022-08-26T08:54:04.789Z,1008.75
2022-08-26T08:55:04.776Z,1008.70
2022-08-26T08:56:05.762Z,1008.70
2022-08-26T08:57:04.750Z,1008.69
2022-08-26T08:58:04.844Z,1008.71
2022-08-26T08:59:04.720Z,1008.67
2022-08-26T09:00:04.710Z,1008.63
2022-08-26T09:01:04.770Z,1008.68
2022-08-26T09:02:04.731Z,1008.71
2022-08-26T09:03:04.661Z,1008.70
2022-08-26T09:04:04.659Z,1008.67
2022-08-26T09:05:04.643Z,1008.71
2022-08-26T09:06:04.630Z,1008.74
2022-08-26T09:07:04.622Z,1008.78
2022-08-26T09:08:04.611Z,1008.77
2022-08-26T09:09:04.592Z,1008.78
2022-08-26T09:10:04.581Z,1008.75
2022-08-26T09:11:04.562Z,1008.78
2022-08-26T09:12:04.561Z,1008.83
2022-08-26T09:13:04.543Z,1008.82
2022-08-26T09:14:04.530Z,1008.83
2022-08-26T09:15:04.510Z,1008.84
2022-08-26T09:16:04.506Z,1008.84
2022-08-26T09:17:04.523Z,1008.85
2022-08-26T09:18:05.741Z,1008.87
2022-08-26T09:19:04.462Z,1008.86
2022-08-26T09:20:04.464Z,1008.83
2022-08-26T09:21:04.437Z,1008.85
2022-08-26T09:22:09.388Z,1008.84
2022-08-26T09:23:05.433Z,1008.88
2022-08-26T09:24:04.402Z,1008.81
2022-08-26T09:25:04.391Z,1008.82
2022-08-26T09:26:04.393Z,1008.86
2022-08-26T09:27:04.362Z,1008.83
2022-08-26T09:28:04.446Z,1008.86
2022-08-26T09:29:04.343Z,1008.83
2022-08-26T09:30:04.331Z,1008.83
2022-08-26T09:31:07.941Z,1008.79
2022-08-26T09:32:05.312Z,1008.88
2022-08-26T09:33:10.201Z,1008.86
2022-08-26T09:34:05.277Z,1008.82
2022-08-26T09:35:04.260Z,1008.85
2022-08-26T09:36:04.251Z,1008.84
2022-08-26T09:37:04.661Z,1008.86
2022-08-26T09:38:04.861Z,1008.88
2022-08-26T09:39:04.408Z,1008.86
2022-08-26T09:40:04.246Z,1008.84
2022-08-26T09:41:05.114Z,1008.89
2022-08-26T09:42:04.182Z,1008.91
2022-08-26T09:43:04.189Z,1008.89
2022-08-26T09:44:04.154Z,1008.91
2022-08-26T09:45:04.132Z,1008.91
2022-08-26T09:46:04.175Z,1008.90
2022-08-26T09:47:04.112Z,1008.86
2022-08-26T09:48:04.204Z,1008.85
2022-08-26T09:49:04.102Z,1008.88
2022-08-26T09:50:04.099Z,1008.87
2022-08-26T09:51:04.294Z,1008.88
2022-08-26T09:52:04.053Z,1008.89
2022-08-26T09:53:04.032Z,1008.90
2022-08-26T09:54:05.765Z,1008.94
2022-08-26T09:55:04.013Z,1008.87
2022-08-26T09:56:04.013Z,1008.87
2022-08-26T09:57:04.005Z,1008.87
2022-08-26T09:58:06.780Z,1008.88
2022-08-26T09:59:04.953Z,1008.89
2022-08-26T10:00:03.954Z,1008.87
2022-08-26T10:01:03.955Z,1008.83
2022-08-26T10:02:03.970Z,1008.88
2022-08-26T10:03:04.909Z,1008.84
2022-08-26T10:04:03.945Z,1008.87
2022-08-26T10:05:09.004Z,1008.84
2022-08-26T10:06:04.863Z,1008.81
2022-08-26T10:07:03.865Z,1008.81
2022-08-26T10:08:03.844Z,1008.86
2022-08-26T10:09:08.232Z,1008.87
2022-08-26T10:10:04.858Z,1008.86
2022-08-26T10:11:03.794Z,1008.75
2022-08-26T10:12:03.805Z,1008.78
2022-08-26T10:13:03.774Z,1008.77
2022-08-26T10:14:03.766Z,1008.76
2022-08-26T10:15:03.752Z,1008.73
2022-08-26T10:16:03.744Z,1008.74
2022-08-26T10:17:03.787Z,1008.70
2022-08-26T10:18:03.778Z,1008.76
2022-08-26T10:25:18.072Z,1008.74
2022-08-26T10:26:18.280Z,1008.72
2022-08-26T10:27:18.788Z,1008.74
2022-08-26T10:28:17.786Z,1008.75
2022-08-26T10:29:17.693Z,1008.72
2022-08-26T10:30:18.049Z,1008.67
2022-08-26T10:31:17.857Z,1008.63
2022-08-26T10:32:17.738Z,1008.68
2022-08-26T10:33:18.946Z,1008.67
2022-08-26T10:34:17.897Z,1008.64
2022-08-26T10:35:17.714Z,1008.61
2022-08-26T10:36:20.348Z,1008.64
2022-08-26T10:37:17.663Z,1008.57
2022-08-26T10:38:17.752Z,1008.65
2022-08-26T10:39:17.568Z,1008.60
2022-08-26T10:40:17.696Z,1008.58
2022-08-26T10:41:18.237Z,1008.57
2022-08-26T10:42:17.816Z,1008.52
2022-08-26T10:43:17.532Z,1008.53
2022-08-26T10:44:17.432Z,1008.57
2022-08-26T10:45:17.596Z,1008.55
2022-08-26T10:46:17.464Z,1008.55
2022-08-26T10:47:17.464Z,1008.53
2022-08-26T10:48:17.452Z,1008.58
2022-08-26T10:49:17.428Z,1008.52
2022-08-26T10:50:17.964Z,1008.52
2022-08-26T10:51:17.385Z,1008.53
2022-08-26T10:52:17.771Z,1008.55
2022-08-26T10:53:17.362Z,1008.50
2022-08-26T10:54:17.587Z,1008.57
2022-08-26T10:55:17.336Z,1008.53
2022-08-26T10:56:19.179Z,1008.50
2022-08-26T10:57:17.302Z,1008.55
2022-08-26T10:58:26.112Z,1008.46
2022-08-26T10:59:18.342Z,1008.54
2022-08-26T11:00:17.438Z,1008.52
2022-08-26T11:01:17.698Z,1008.53
2022-08-26T11:02:22.817Z,1008.52
2022-08-26T11:03:22.499Z,1008.54
2022-08-26T11:04:17.563Z,1008.54
2022-08-26T11:05:17.237Z,1008.56
2022-08-26T11:06:17.406Z,1008.53
2022-08-26T11:07:17.197Z,1008.55
2022-08-26T11:08:17.162Z,1008.55
2022-08-26T11:09:17.652Z,1008.56
2022-08-26T11:10:18.222Z,1008.56
2022-08-26T11:11:17.202Z,1008.55
2022-08-26T11:12:17.465Z,1008.57
2022-08-26T11:13:17.157Z,1008.53
2022-08-26T11:14:17.281Z,1008.53
2022-08-26T11:15:18.220Z,1008.56
2022-08-26T11:16:17.125Z,1008.58
2022-08-26T11:17:17.014Z,1008.54
2022-08-26T11:18:17.414Z,1008.54
2022-08-26T11:19:17.115Z,1008.55
2022-08-26T11:20:17.152Z,1008.52
2022-08-26T11:21:17.066Z,1008.58
2022-08-26T11:22:18.324Z,1008.55
2022-08-26T11:23:17.033Z,1008.53
2022-08-26T11:24:17.276Z,1008.54
2022-08-26T11:25:18.191Z,1008.53
2022-08-26T11:26:37.736Z,1008.55
2022-08-26T11:27:18.486Z,1008.53
2022-08-26T11:28:17.363Z,1008.52
2022-08-26T11:29:16.888Z,1008.52
2022-08-26T11:30:18.278Z,1008.52
2022-08-26T11:31:16.948Z,1008.51
2022-08-26T11:32:17.212Z,1008.53
2022-08-26T11:33:17.096Z,1008.56
2022-08-26T11:34:16.812Z,1008.57
2022-08-26T11:35:16.904Z,1008.54
2022-08-26T11:36:16.983Z,1008.52
2022-08-26T11:37:16.902Z,1008.51
2022-08-26T11:38:17.029Z,1008.53
2022-08-26T11:39:16.952Z,1008.51
2022-08-26T11:40:16.778Z,1008.54
2022-08-26T11:41:16.809Z,1008.53
2022-08-26T11:42:16.899Z,1008.50
2022-08-26T11:43:17.231Z,1008.54
2022-08-26T11:44:16.747Z,1008.51
2022-08-26T11:45:16.855Z,1008.48
2022-08-26T11:46:16.922Z,1008.49
2022-08-26T11:47:16.776Z,1008.47
2022-08-26T11:48:16.997Z,1008.55
2022-08-26T11:49:16.732Z,1008.54
2022-08-26T11:50:16.782Z,1008.50
2022-08-26T11:51:16.711Z,1008.51
2022-08-26T11:52:16.742Z,1008.46
2022-08-26T11:53:16.847Z,1008.51
2022-08-26T11:54:16.717Z,1008.49
2022-08-26T11:55:17.556Z,1008.46
2022-08-26T11:56:16.798Z,1008.45
2022-08-26T11:57:17.215Z,1008.41
2022-08-26T11:58:16.857Z,1008.45
2022-08-26T11:59:16.545Z,1008.42
2022-08-26T12:00:22.196Z,1008.47
2022-08-26T12:01:17.581Z,1008.48
2022-08-26T12:02:18.119Z,1008.47
2022-08-26T12:03:16.545Z,1008.47
2022-08-26T12:04:16.697Z,1008.42
2022-08-26T12:05:16.386Z,1008.44
2022-08-26T12:06:16.581Z,1008.44
2022-08-26T12:07:16.513Z,1008.40
2022-08-26T12:08:16.476Z,1008.42
2022-08-26T12:09:16.558Z,1008.36
2022-08-26T12:10:16.523Z,1008.40
2022-08-26T12:11:16.472Z,1008.36